sensor_id;sensor_type;location;lat;lon;timestamp;temperature;humidity
31527;DHT22;18136;42.236;-73.040;2023-04-16T00:00:52;16.50;99.90
31527;DHT22;18136;42.236;-73.040;2023-04-16T00:03:18;16.50;99.90
31527;DHT22;18136;42.236;-73.040;2023-04-16T00:05:46;16.50;99.90
31527;DHT22;18136;42.236;-73.040;2023-04-16T00:08:12;16.50;99.90
31527;DHT22;18136;42.236;-73.040;2023-04-16T00:10:38;16.50;99.90
31527;DHT22;18136;42.236;-73.040;2023-04-16T00:13:04;16.40;99.90
31527;DHT22;18136;42.236;-73.040;2023-04-16T00:15:31;16.40;99.90
31527;DHT22;18136;42.236;-73.040;2023-04-16T00:17:57;16.40;99.90
31527;DHT22;18136;42.236;-73.040;2023-04-16T00:20:23;16.30;99.90
31527;DHT22;18136;42.236;-73.040;2023-04-16T00:22:50;16.30;99.90
31527;DHT22;18136;42.236;-73.040;2023-04-16T00:25:16;16.30;99.90
31527;DHT22;18136;42.236;-73.040;2023-04-16T00:27:42;16.30;99.90
31527;DHT22;18136;42.236;-73.040;2023-04-16T00:30:08;16.30;99.90
31527;DHT22;18136;42.236;-73.040;2023-04-16T00:32:35;16.30;99.90
31527;DHT22;18136;42.236;-73.040;2023-04-16T00:35:01;16.20;99.90
31527;DHT22;18136;42.236;-73.040;2023-04-16T00:37:27;16.20;99.90
31527;DHT22;18136;42.236;-73.040;2023-04-16T00:39:55;16.20;99.90
31527;DHT22;18136;42.236;-73.040;2023-04-16T00:42:21;16.20;99.90
31527;DHT22;18136;42.236;-73.040;2023-04-16T00:44:47;16.10;99.90
31527;DHT22;18136;42.236;-73.040;2023-04-16T00:47:14;16.10;99.90
31527;DHT22;18136;42.236;-73.040;2023-04-16T00:49:41;16.10;99.90
31527;DHT22;18136;42.236;-73.040;2023-04-16T00:52:07;16.10;99.90
31527;DHT22;18136;42.236;-73.040;2023-04-16T00:54:35;16.00;99.90
31527;DHT22;18136;42.236;-73.040;2023-04-16T00:57:02;16.10;99.90
31527;DHT22;18136;42.236;-73.040;2023-04-16T00:59:28;16.00;99.90
31527;DHT22;18136;42.236;-73.040;2023-04-16T01:01:54;16.00;99.90
31527;DHT22;18136;42.236;-73.040;2023-04-16T01:04:22;16.00;99.90
31527;DHT22;18136;42.236;-73.040;2023-04-16T01:06:48;15.90;99.90
31527;DHT22;18136;42.236;-73.040;2023-04-16T01:09:15;15.90;99.90
31527;DHT22;18136;42.236;-73.040;2023-04-16T01:11:41;15.90;99.90
31527;DHT22;18136;42.236;-73.040;2023-04-16T01:14:07;15.90;99.90
31527;DHT22;18136;42.236;-73.040;2023-04-16T01:16:33;15.90;99.90
31527;DHT22;18136;42.236;-73.040;2023-04-16T01:18:59;15.80;99.90
31527;DHT22;18136;42.236;-73.040;2023-04-16T01:21:26;15.80;99.90
31527;DHT22;18136;42.236;-73.040;2023-04-16T01:23:52;15.90;99.90
31527;DHT22;18136;42.236;-73.040;2023-04-16T01:26:18;15.80;99.90
31527;DHT22;18136;42.236;-73.040;2023-04-16T01:28:44;15.80;99.90
31527;DHT22;18136;42.236;-73.040;2023-04-16T01:31:10;15.80;99.90
31527;DHT22;18136;42.236;-73.040;2023-04-16T01:33:36;15.80;99.90
31527;DHT22;18136;42.236;-73.040;2023-04-16T01:36:02;15.80;99.90
31527;DHT22;18136;42.236;-73.040;2023-04-16T01:38:31;15.80;99.90
31527;DHT22;18136;42.236;-73.040;2023-04-16T01:40:57;15.80;99.90
31527;DHT22;18136;42.236;-73.040;2023-04-16T01:43:27;15.80;99.90
31527;DHT22;18136;42.236;-73.040;2023-04-16T01:46:10;15.80;99.90
31527;DHT22;18136;42.236;-73.040;2023-04-16T01:48:40;15.80;99.90
31527;DHT22;18136;42.236;-73.040;2023-04-16T01:51:06;15.80;99.90
31527;DHT22;18136;42.236;-73.040;2023-04-16T01:53:32;15.80;99.90
31527;DHT22;18136;42.236;-73.040;2023-04-16T01:55:58;15.80;99.90
31527;DHT22;18136;42.236;-73.040;2023-04-16T01:58:27;15.80;99.90
31527;DHT22;18136;42.236;-73.040;2023-04-16T02:00:54;15.80;99.90
31527;DHT22;18136;42.236;-73.040;2023-04-16T02:03:21;15.70;99.90
31527;DHT22;18136;42.236;-73.040;2023-04-16T02:05:50;15.70;99.90
31527;DHT22;18136;42.236;-73.040;2023-04-16T02:08:16;15.70;99.90
31527;DHT22;18136;42.236;-73.040;2023-04-16T02:10:48;15.70;99.90
31527;DHT22;18136;42.236;-73.040;2023-04-16T02:13:15;15.70;99.90
31527;DHT22;18136;42.236;-73.040;2023-04-16T02:15:46;15.70;99.90
31527;DHT22;18136;42.236;-73.040;2023-04-16T02:18:12;15.70;99.90
31527;DHT22;18136;42.236;-73.040;2023-04-16T02:20:43;15.70;99.90
31527;DHT22;18136;42.236;-73.040;2023-04-16T02:23:09;15.70;99.90
31527;DHT22;18136;42.236;-73.040;2023-04-16T02:25:46;15.70;99.90
31527;DHT22;18136;42.236;-73.040;2023-04-16T02:28:13;15.70;99.90
31527;DHT22;18136;42.236;-73.040;2023-04-16T02:30:40;15.70;99.90
31527;DHT22;18136;42.236;-73.040;2023-04-16T02:33:08;15.70;99.90
31527;DHT22;18136;42.236;-73.040;2023-04-16T02:35:36;15.70;99.90
31527;DHT22;18136;42.236;-73.040;2023-04-16T02:38:03;15.60;99.90
31527;DHT22;18136;42.236;-73.040;2023-04-16T02:40:30;15.60;99.90
31527;DHT22;18136;42.236;-73.040;2023-04-16T02:42:56;15.60;99.90
31527;DHT22;18136;42.236;-73.040;2023-04-16T02:45:23;15.60;99.90
31527;DHT22;18136;42.236;-73.040;2023-04-16T02:47:49;15.60;99.90
31527;DHT22;18136;42.236;-73.040;2023-04-16T02:50:16;15.60;99.90
31527;DHT22;18136;42.236;-73.040;2023-04-16T02:52:42;15.60;99.90
31527;DHT22;18136;42.236;-73.040;2023-04-16T02:55:09;15.60;99.90
31527;DHT22;18136;42.236;-73.040;2023-04-16T02:57:35;15.60;99.90
31527;DHT22;18136;42.236;-73.040;2023-04-16T03:00:02;15.60;99.90
31527;DHT22;18136;42.236;-73.040;2023-04-16T03:02:29;15.60;99.90
31527;DHT22;18136;42.236;-73.040;2023-04-16T03:04:55;15.50;99.90
31527;DHT22;18136;42.236;-73.040;2023-04-16T03:07:22;15.50;99.90
31527;DHT22;18136;42.236;-73.040;2023-04-16T03:09:48;15.50;99.90
31527;DHT22;18136;42.236;-73.040;2023-04-16T03:12:14;15.50;99.90
31527;DHT22;18136;42.236;-73.040;2023-04-16T03:14:40;15.50;99.90
31527;DHT22;18136;42.236;-73.040;2023-04-16T03:17:06;15.50;99.90
31527;DHT22;18136;42.236;-73.040;2023-04-16T03:19:32;15.50;99.90
31527;DHT22;18136;42.236;-73.040;2023-04-16T03:21:58;15.50;99.90
31527;DHT22;18136;42.236;-73.040;2023-04-16T03:24:24;15.50;99.90
31527;DHT22;18136;42.236;-73.040;2023-04-16T03:26:50;15.50;99.90
31527;DHT22;18136;42.236;-73.040;2023-04-16T03:29:16;15.50;99.90
31527;DHT22;18136;42.236;-73.040;2023-04-16T03:31:42;15.50;99.90
31527;DHT22;18136;42.236;-73.040;2023-04-16T03:34:08;15.40;99.90
31527;DHT22;18136;42.236;-73.040;2023-04-16T03:36:35;15.40;99.90
31527;DHT22;18136;42.236;-73.040;2023-04-16T03:39:01;15.40;99.90
31527;DHT22;18136;42.236;-73.040;2023-04-16T03:41:27;15.40;99.90
31527;DHT22;18136;42.236;-73.040;2023-04-16T03:43:53;15.50;99.90
31527;DHT22;18136;42.236;-73.040;2023-04-16T03:46:19;15.40;99.90
31527;DHT22;18136;42.236;-73.040;2023-04-16T03:48:45;15.40;99.90
31527;DHT22;18136;42.236;-73.040;2023-04-16T03:51:11;15.40;99.90
31527;DHT22;18136;42.236;-73.040;2023-04-16T03:53:37;15.40;99.90
31527;DHT22;18136;42.236;-73.040;2023-04-16T03:56:04;15.40;99.90
31527;DHT22;18136;42.236;-73.040;2023-04-16T03:58:30;15.40;99.90
31527;DHT22;18136;42.236;-73.040;2023-04-16T04:00:56;15.40;99.90
31527;DHT22;18136;42.236;-73.040;2023-04-16T04:03:22;15.40;99.90
31527;DHT22;18136;42.236;-73.040;2023-04-16T04:05:48;15.40;99.90
31527;DHT22;18136;42.236;-73.040;2023-04-16T04:08:14;15.40;99.90
31527;DHT22;18136;42.236;-73.040;2023-04-16T04:10:40;15.40;99.90
31527;DHT22;18136;42.236;-73.040;2023-04-16T04:13:06;15.30;99.90
31527;DHT22;18136;42.236;-73.040;2023-04-16T04:15:32;15.40;99.90
31527;DHT22;18136;42.236;-73.040;2023-04-16T04:17:59;15.40;99.90
31527;DHT22;18136;42.236;-73.040;2023-04-16T04:20:25;15.40;99.90
31527;DHT22;18136;42.236;-73.040;2023-04-16T04:22:51;15.30;99.90
31527;DHT22;18136;42.236;-73.040;2023-04-16T04:25:17;15.30;99.90
31527;DHT22;18136;42.236;-73.040;2023-04-16T04:27:43;15.30;99.90
31527;DHT22;18136;42.236;-73.040;2023-04-16T04:30:09;15.30;99.90
31527;DHT22;18136;42.236;-73.040;2023-04-16T04:32:35;15.30;99.90
31527;DHT22;18136;42.236;-73.040;2023-04-16T04:35:02;15.30;99.90
31527;DHT22;18136;42.236;-73.040;2023-04-16T04:37:28;15.30;99.90
31527;DHT22;18136;42.236;-73.040;2023-04-16T04:39:55;15.30;99.90
31527;DHT22;18136;42.236;-73.040;2023-04-16T04:42:21;15.30;99.90
31527;DHT22;18136;42.236;-73.040;2023-04-16T04:44:47;15.30;99.90
31527;DHT22;18136;42.236;-73.040;2023-04-16T04:47:14;15.20;99.90
31527;DHT22;18136;42.236;-73.040;2023-04-16T04:49:43;15.20;99.90
31527;DHT22;18136;42.236;-73.040;2023-04-16T04:52:09;15.20;99.90
31527;DHT22;18136;42.236;-73.040;2023-04-16T04:54:36;15.30;99.90
31527;DHT22;18136;42.236;-73.040;2023-04-16T04:57:06;15.20;99.90
31527;DHT22;18136;42.236;-73.040;2023-04-16T04:59:33;15.20;99.90
31527;DHT22;18136;42.236;-73.040;2023-04-16T05:01:59;15.20;99.90
31527;DHT22;18136;42.236;-73.040;2023-04-16T05:04:26;15.20;99.90
31527;DHT22;18136;42.236;-73.040;2023-04-16T05:06:52;15.20;99.90
31527;DHT22;18136;42.236;-73.040;2023-04-16T05:09:18;15.20;99.90
31527;DHT22;18136;42.236;-73.040;2023-04-16T05:11:45;15.20;99.90
31527;DHT22;18136;42.236;-73.040;2023-04-16T05:14:11;15.20;99.90
31527;DHT22;18136;42.236;-73.040;2023-04-16T05:16:37;15.10;99.90
31527;DHT22;18136;42.236;-73.040;2023-04-16T05:19:03;15.20;99.90
31527;DHT22;18136;42.236;-73.040;2023-04-16T05:21:29;15.10;99.90
31527;DHT22;18136;42.236;-73.040;2023-04-16T05:23:55;15.20;99.90
31527;DHT22;18136;42.236;-73.040;2023-04-16T05:26:21;15.10;99.90
31527;DHT22;18136;42.236;-73.040;2023-04-16T05:28:48;15.10;99.90
31527;DHT22;18136;42.236;-73.040;2023-04-16T05:31:14;15.10;99.90
31527;DHT22;18136;42.236;-73.040;2023-04-16T05:33:40;15.10;99.90
31527;DHT22;18136;42.236;-73.040;2023-04-16T05:36:06;15.10;99.90
31527;DHT22;18136;42.236;-73.040;2023-04-16T05:38:32;15.10;99.90
31527;DHT22;18136;42.236;-73.040;2023-04-16T05:40:58;15.10;99.90
31527;DHT22;18136;42.236;-73.040;2023-04-16T05:43:24;15.10;99.90
31527;DHT22;18136;42.236;-73.040;2023-04-16T05:45:51;15.10;99.90
31527;DHT22;18136;42.236;-73.040;2023-04-16T05:48:17;15.10;99.90
31527;DHT22;18136;42.236;-73.040;2023-04-16T05:50:44;15.00;99.90
31527;DHT22;18136;42.236;-73.040;2023-04-16T05:53:13;15.10;99.90
31527;DHT22;18136;42.236;-73.040;2023-04-16T05:55:40;15.00;99.90
31527;DHT22;18136;42.236;-73.040;2023-04-16T05:58:06;15.00;99.90
31527;DHT22;18136;42.236;-73.040;2023-04-16T06:00:32;15.10;99.90
31527;DHT22;18136;42.236;-73.040;2023-04-16T06:02:58;15.00;99.90
31527;DHT22;18136;42.236;-73.040;2023-04-16T06:05:25;15.00;99.90
31527;DHT22;18136;42.236;-73.040;2023-04-16T06:07:51;15.00;99.90
31527;DHT22;18136;42.236;-73.040;2023-04-16T06:10:17;15.00;99.90
31527;DHT22;18136;42.236;-73.040;2023-04-16T06:12:43;15.00;99.90
31527;DHT22;18136;42.236;-73.040;2023-04-16T06:15:10;15.00;99.90
31527;DHT22;18136;42.236;-73.040;2023-04-16T06:17:36;15.00;99.90
31527;DHT22;18136;42.236;-73.040;2023-04-16T06:20:02;15.00;99.90
31527;DHT22;18136;42.236;-73.040;2023-04-16T06:22:29;15.00;99.90
31527;DHT22;18136;42.236;-73.040;2023-04-16T06:24:55;15.00;99.90
31527;DHT22;18136;42.236;-73.040;2023-04-16T06:27:21;15.00;99.90
31527;DHT22;18136;42.236;-73.040;2023-04-16T06:29:47;15.00;99.90
31527;DHT22;18136;42.236;-73.040;2023-04-16T06:32:13;15.00;99.90
31527;DHT22;18136;42.236;-73.040;2023-04-16T06:34:41;15.00;99.90
31527;DHT22;18136;42.236;-73.040;2023-04-16T06:37:07;15.00;99.90
31527;DHT22;18136;42.236;-73.040;2023-04-16T06:39:34;15.00;99.90
31527;DHT22;18136;42.236;-73.040;2023-04-16T06:42:00;15.00;99.90
31527;DHT22;18136;42.236;-73.040;2023-04-16T06:44:26;15.00;99.90
31527;DHT22;18136;42.236;-73.040;2023-04-16T06:46:52;14.90;99.90
31527;DHT22;18136;42.236;-73.040;2023-04-16T06:49:18;14.90;99.90
31527;DHT22;18136;42.236;-73.040;2023-04-16T06:51:45;14.90;99.90
31527;DHT22;18136;42.236;-73.040;2023-04-16T06:54:11;14.90;99.90
31527;DHT22;18136;42.236;-73.040;2023-04-16T06:56:37;14.90;99.90
31527;DHT22;18136;42.236;-73.040;2023-04-16T06:59:03;14.90;99.90
31527;DHT22;18136;42.236;-73.040;2023-04-16T07:01:29;14.90;99.90
31527;DHT22;18136;42.236;-73.040;2023-04-16T07:03:56;14.90;99.90
31527;DHT22;18136;42.236;-73.040;2023-04-16T07:06:23;14.90;99.90
31527;DHT22;18136;42.236;-73.040;2023-04-16T07:08:49;14.90;99.90
31527;DHT22;18136;42.236;-73.040;2023-04-16T07:11:15;14.90;99.90
31527;DHT22;18136;42.236;-73.040;2023-04-16T07:13:41;14.80;99.90
31527;DHT22;18136;42.236;-73.040;2023-04-16T07:16:07;14.80;99.90
31527;DHT22;18136;42.236;-73.040;2023-04-16T07:18:34;14.80;99.90
31527;DHT22;18136;42.236;-73.040;2023-04-16T07:21:00;14.80;99.90
31527;DHT22;18136;42.236;-73.040;2023-04-16T07:23:26;14.80;99.90
31527;DHT22;18136;42.236;-73.040;2023-04-16T07:25:52;14.80;99.90
31527;DHT22;18136;42.236;-73.040;2023-04-16T07:28:18;14.80;99.90
31527;DHT22;18136;42.236;-73.040;2023-04-16T07:30:45;14.80;99.90
31527;DHT22;18136;42.236;-73.040;2023-04-16T07:33:11;14.80;99.90
31527;DHT22;18136;42.236;-73.040;2023-04-16T07:35:37;14.80;99.90
31527;DHT22;18136;42.236;-73.040;2023-04-16T07:38:03;14.80;99.90
31527;DHT22;18136;42.236;-73.040;2023-04-16T07:50:42;14.80;99.90
31527;DHT22;18136;42.236;-73.040;2023-04-16T07:53:08;14.80;99.90
31527;DHT22;18136;42.236;-73.040;2023-04-16T07:55:34;14.80;99.90
31527;DHT22;18136;42.236;-73.040;2023-04-16T07:58:00;14.70;99.90
31527;DHT22;18136;42.236;-73.040;2023-04-16T08:00:28;14.70;99.90
31527;DHT22;18136;42.236;-73.040;2023-04-16T08:02:54;14.70;99.90
31527;DHT22;18136;42.236;-73.040;2023-04-16T08:05:20;14.70;99.90
31527;DHT22;18136;42.236;-73.040;2023-04-16T08:07:46;14.70;99.90
31527;DHT22;18136;42.236;-73.040;2023-04-16T08:10:12;14.70;99.90
31527;DHT22;18136;42.236;-73.040;2023-04-16T08:12:38;14.70;99.90
31527;DHT22;18136;42.236;-73.040;2023-04-16T08:15:05;14.70;99.90
31527;DHT22;18136;42.236;-73.040;2023-04-16T08:17:31;14.70;99.90
31527;DHT22;18136;42.236;-73.040;2023-04-16T08:19:59;14.70;99.90
31527;DHT22;18136;42.236;-73.040;2023-04-16T08:22:26;14.70;99.90
31527;DHT22;18136;42.236;-73.040;2023-04-16T08:24:52;14.70;99.90
31527;DHT22;18136;42.236;-73.040;2023-04-16T08:27:18;14.70;99.90
31527;DHT22;18136;42.236;-73.040;2023-04-16T08:29:44;14.70;99.90
31527;DHT22;18136;42.236;-73.040;2023-04-16T08:32:10;14.70;99.90
31527;DHT22;18136;42.236;-73.040;2023-04-16T08:34:36;14.70;99.90
31527;DHT22;18136;42.236;-73.040;2023-04-16T08:37:03;14.70;99.90
31527;DHT22;18136;42.236;-73.040;2023-04-16T08:39:29;14.70;99.90
31527;DHT22;18136;42.236;-73.040;2023-04-16T08:41:56;14.70;99.90
31527;DHT22;18136;42.236;-73.040;2023-04-16T08:44:30;14.70;99.90
31527;DHT22;18136;42.236;-73.040;2023-04-16T08:46:57;14.70;99.90
31527;DHT22;18136;42.236;-73.040;2023-04-16T08:49:26;14.70;99.90
31527;DHT22;18136;42.236;-73.040;2023-04-16T08:51:54;14.70;99.90
31527;DHT22;18136;42.236;-73.040;2023-04-16T08:54:42;14.70;99.90
31527;DHT22;18136;42.236;-73.040;2023-04-16T08:57:11;14.60;99.90
31527;DHT22;18136;42.236;-73.040;2023-04-16T08:59:45;14.60;99.90
31527;DHT22;18136;42.236;-73.040;2023-04-16T09:02:12;14.60;99.90
31527;DHT22;18136;42.236;-73.040;2023-04-16T09:04:40;14.60;99.90
31527;DHT22;18136;42.236;-73.040;2023-04-16T09:07:07;14.50;99.90
31527;DHT22;18136;42.236;-73.040;2023-04-16T09:09:34;14.60;99.90
31527;DHT22;18136;42.236;-73.040;2023-04-16T09:12:04;14.50;99.90
31527;DHT22;18136;42.236;-73.040;2023-04-16T09:14:30;14.50;99.90
31527;DHT22;18136;42.236;-73.040;2023-04-16T09:16:56;14.50;99.90
31527;DHT22;18136;42.236;-73.040;2023-04-16T09:19:26;14.50;99.90
31527;DHT22;18136;42.236;-73.040;2023-04-16T09:21:52;14.50;99.90
31527;DHT22;18136;42.236;-73.040;2023-04-16T09:24:18;14.40;99.90
31527;DHT22;18136;42.236;-73.040;2023-04-16T09:26:45;14.50;99.90
31527;DHT22;18136;42.236;-73.040;2023-04-16T09:29:11;14.50;99.90
31527;DHT22;18136;42.236;-73.040;2023-04-16T09:31:37;14.50;99.90
31527;DHT22;18136;42.236;-73.040;2023-04-16T09:34:04;14.50;99.90
31527;DHT22;18136;42.236;-73.040;2023-04-16T09:36:32;14.50;99.90
31527;DHT22;18136;42.236;-73.040;2023-04-16T09:38:59;14.50;99.90
31527;DHT22;18136;42.236;-73.040;2023-04-16T09:41:27;14.40;99.90
31527;DHT22;18136;42.236;-73.040;2023-04-16T09:43:57;14.40;99.90
31527;DHT22;18136;42.236;-73.040;2023-04-16T09:46:43;14.40;99.90
31527;DHT22;18136;42.236;-73.040;2023-04-16T09:49:13;14.40;99.90
31527;DHT22;18136;42.236;-73.040;2023-04-16T09:51:41;14.40;99.90
31527;DHT22;18136;42.236;-73.040;2023-04-16T09:54:08;14.40;99.90
31527;DHT22;18136;42.236;-73.040;2023-04-16T09:56:44;14.40;99.90
31527;DHT22;18136;42.236;-73.040;2023-04-16T09:59:17;14.40;99.90
31527;DHT22;18136;42.236;-73.040;2023-04-16T10:01:44;14.40;99.90
31527;DHT22;18136;42.236;-73.040;2023-04-16T10:04:11;14.30;99.90
31527;DHT22;18136;42.236;-73.040;2023-04-16T10:06:37;14.30;99.90
31527;DHT22;18136;42.236;-73.040;2023-04-16T10:09:06;14.30;99.90
31527;DHT22;18136;42.236;-73.040;2023-04-16T10:11:33;14.30;99.90
31527;DHT22;18136;42.236;-73.040;2023-04-16T10:13:59;14.30;99.90
31527;DHT22;18136;42.236;-73.040;2023-04-16T10:16:25;14.30;99.90
31527;DHT22;18136;42.236;-73.040;2023-04-16T10:18:52;14.30;99.90
31527;DHT22;18136;42.236;-73.040;2023-04-16T10:21:19;14.30;99.90
31527;DHT22;18136;42.236;-73.040;2023-04-16T10:23:45;14.20;99.90
31527;DHT22;18136;42.236;-73.040;2023-04-16T10:26:14;14.20;99.90
31527;DHT22;18136;42.236;-73.040;2023-04-16T10:28:44;14.20;99.90
31527;DHT22;18136;42.236;-73.040;2023-04-16T10:31:11;14.20;99.90
31527;DHT22;18136;42.236;-73.040;2023-04-16T10:33:41;14.20;99.90
31527;DHT22;18136;42.236;-73.040;2023-04-16T10:36:12;14.20;99.90
31527;DHT22;18136;42.236;-73.040;2023-04-16T10:38:49;14.20;99.90
31527;DHT22;18136;42.236;-73.040;2023-04-16T10:41:15;14.20;99.90
31527;DHT22;18136;42.236;-73.040;2023-04-16T10:43:46;14.20;99.90
31527;DHT22;18136;42.236;-73.040;2023-04-16T10:46:51;14.20;99.90
31527;DHT22;18136;42.236;-73.040;2023-04-16T10:51:59;14.20;99.90
31527;DHT22;18136;42.236;-73.040;2023-04-16T10:54:29;14.20;99.90
31527;DHT22;18136;42.236;-73.040;2023-04-16T10:56:57;14.20;99.90
31527;DHT22;18136;42.236;-73.040;2023-04-16T10:59:24;14.20;99.90
31527;DHT22;18136;42.236;-73.040;2023-04-16T11:01:57;14.20;99.90
31527;DHT22;18136;42.236;-73.040;2023-04-16T11:10:04;14.20;99.90
31527;DHT22;18136;42.236;-73.040;2023-04-16T11:12:34;14.20;99.90
31527;DHT22;18136;42.236;-73.040;2023-04-16T11:15:08;14.20;99.90
31527;DHT22;18136;42.236;-73.040;2023-04-16T11:17:48;14.20;99.90
31527;DHT22;18136;42.236;-73.040;2023-04-16T11:20:21;14.10;99.90
31527;DHT22;18136;42.236;-73.040;2023-04-16T11:22:49;14.10;99.90
31527;DHT22;18136;42.236;-73.040;2023-04-16T11:25:26;14.10;99.90
31527;DHT22;18136;42.236;-73.040;2023-04-16T11:27:54;14.20;99.90
31527;DHT22;18136;42.236;-73.040;2023-04-16T11:30:47;14.20;99.90
31527;DHT22;18136;42.236;-73.040;2023-04-16T11:33:13;14.10;99.90
31527;DHT22;18136;42.236;-73.040;2023-04-16T11:35:41;14.10;99.90
31527;DHT22;18136;42.236;-73.040;2023-04-16T11:38:08;14.10;99.90
31527;DHT22;18136;42.236;-73.040;2023-04-16T11:40:34;14.10;99.90
31527;DHT22;18136;42.236;-73.040;2023-04-16T11:43:18;14.20;99.90
31527;DHT22;18136;42.236;-73.040;2023-04-16T11:45:58;14.20;99.90
31527;DHT22;18136;42.236;-73.040;2023-04-16T11:48:25;14.20;99.90
31527;DHT22;18136;42.236;-73.040;2023-04-16T11:50:55;14.20;99.90
31527;DHT22;18136;42.236;-73.040;2023-04-16T11:53:21;14.20;99.90
31527;DHT22;18136;42.236;-73.040;2023-04-16T11:55:48;14.20;99.90
31527;DHT22;18136;42.236;-73.040;2023-04-16T11:58:14;14.20;99.90
31527;DHT22;18136;42.236;-73.040;2023-04-16T12:00:41;14.20;99.90
31527;DHT22;18136;42.236;-73.040;2023-04-16T12:03:07;14.20;99.90
31527;DHT22;18136;42.236;-73.040;2023-04-16T12:05:41;14.30;99.90
31527;DHT22;18136;42.236;-73.040;2023-04-16T12:08:09;14.30;99.90
31527;DHT22;18136;42.236;-73.040;2023-04-16T12:10:37;14.40;99.90
31527;DHT22;18136;42.236;-73.040;2023-04-16T12:13:17;14.40;99.90
31527;DHT22;18136;42.236;-73.040;2023-04-16T12:15:51;14.40;99.90
31527;DHT22;18136;42.236;-73.040;2023-04-16T12:18:19;14.40;99.90
31527;DHT22;18136;42.236;-73.040;2023-04-16T12:20:46;14.50;99.90
31527;DHT22;18136;42.236;-73.040;2023-04-16T12:23:31;14.50;99.90
31527;DHT22;18136;42.236;-73.040;2023-04-16T12:25:58;14.50;99.90
31527;DHT22;18136;42.236;-73.040;2023-04-16T12:28:35;14.50;99.90
31527;DHT22;18136;42.236;-73.040;2023-04-16T12:31:04;14.50;99.90
31527;DHT22;18136;42.236;-73.040;2023-04-16T12:33:30;14.50;99.90
31527;DHT22;18136;42.236;-73.040;2023-04-16T12:35:56;14.50;99.90
31527;DHT22;18136;42.236;-73.040;2023-04-16T12:38:23;14.50;99.90
31527;DHT22;18136;42.236;-73.040;2023-04-16T12:40:50;14.60;99.90
31527;DHT22;18136;42.236;-73.040;2023-04-16T12:43:16;14.60;99.90
31527;DHT22;18136;42.236;-73.040;2023-04-16T12:45:42;14.70;99.90
31527;DHT22;18136;42.236;-73.040;2023-04-16T12:48:08;14.70;99.90
31527;DHT22;18136;42.236;-73.040;2023-04-16T12:50:35;14.70;99.90
31527;DHT22;18136;42.236;-73.040;2023-04-16T12:53:01;14.70;99.90
31527;DHT22;18136;42.236;-73.040;2023-04-16T12:55:27;14.80;99.90
31527;DHT22;18136;42.236;-73.040;2023-04-16T12:57:53;14.80;99.90
31527;DHT22;18136;42.236;-73.040;2023-04-16T13:00:19;14.70;99.90
31527;DHT22;18136;42.236;-73.040;2023-04-16T13:02:47;14.70;99.90
31527;DHT22;18136;42.236;-73.040;2023-04-16T13:05:13;14.70;99.90
31527;DHT22;18136;42.236;-73.040;2023-04-16T13:07:41;14.70;99.90
31527;DHT22;18136;42.236;-73.040;2023-04-16T13:10:08;14.70;99.90
31527;DHT22;18136;42.236;-73.040;2023-04-16T13:12:34;14.70;99.90
31527;DHT22;18136;42.236;-73.040;2023-04-16T13:15:01;14.70;99.90
31527;DHT22;18136;42.236;-73.040;2023-04-16T13:17:27;14.60;99.90
31527;DHT22;18136;42.236;-73.040;2023-04-16T13:19:53;14.60;99.90
31527;DHT22;18136;42.236;-73.040;2023-04-16T13:22:19;14.50;99.90
31527;DHT22;18136;42.236;-73.040;2023-04-16T13:24:45;14.50;99.90
31527;DHT22;18136;42.236;-73.040;2023-04-16T13:27:11;14.50;99.90
31527;DHT22;18136;42.236;-73.040;2023-04-16T13:29:39;14.50;99.90
31527;DHT22;18136;42.236;-73.040;2023-04-16T13:32:06;14.50;99.90
31527;DHT22;18136;42.236;-73.040;2023-04-16T13:34:32;14.40;99.90
31527;DHT22;18136;42.236;-73.040;2023-04-16T13:36:58;14.50;99.90
31527;DHT22;18136;42.236;-73.040;2023-04-16T13:39:24;14.50;99.90
31527;DHT22;18136;42.236;-73.040;2023-04-16T13:41:50;14.50;99.90
31527;DHT22;18136;42.236;-73.040;2023-04-16T13:44:16;14.40;99.90
31527;DHT22;18136;42.236;-73.040;2023-04-16T13:46:42;14.40;99.90
31527;DHT22;18136;42.236;-73.040;2023-04-16T13:49:12;14.40;99.90
31527;DHT22;18136;42.236;-73.040;2023-04-16T13:51:38;14.50;99.90
31527;DHT22;18136;42.236;-73.040;2023-04-16T13:54:04;14.50;99.90
31527;DHT22;18136;42.236;-73.040;2023-04-16T13:56:30;14.50;99.90
31527;DHT22;18136;42.236;-73.040;2023-04-16T13:58:57;14.50;99.90
31527;DHT22;18136;42.236;-73.040;2023-04-16T14:01:23;14.50;99.90
31527;DHT22;18136;42.236;-73.040;2023-04-16T14:03:49;14.50;99.90
31527;DHT22;18136;42.236;-73.040;2023-04-16T14:06:15;14.50;99.90
31527;DHT22;18136;42.236;-73.040;2023-04-16T14:08:43;14.50;99.90
31527;DHT22;18136;42.236;-73.040;2023-04-16T14:11:10;14.50;99.90
31527;DHT22;18136;42.236;-73.040;2023-04-16T14:13:36;14.50;99.90
31527;DHT22;18136;42.236;-73.040;2023-04-16T14:16:02;14.40;99.90
31527;DHT22;18136;42.236;-73.040;2023-04-16T14:18:28;14.40;99.90
31527;DHT22;18136;42.236;-73.040;2023-04-16T14:20:55;14.40;99.90
31527;DHT22;18136;42.236;-73.040;2023-04-16T14:23:21;14.50;99.90
31527;DHT22;18136;42.236;-73.040;2023-04-16T14:25:47;14.50;99.90
31527;DHT22;18136;42.236;-73.040;2023-04-16T14:28:13;14.50;99.90
31527;DHT22;18136;42.236;-73.040;2023-04-16T14:30:40;14.60;99.90
31527;DHT22;18136;42.236;-73.040;2023-04-16T14:33:06;14.50;99.90
31527;DHT22;18136;42.236;-73.040;2023-04-16T14:35:32;14.50;99.90
31527;DHT22;18136;42.236;-73.040;2023-04-16T14:37:59;14.50;99.90
31527;DHT22;18136;42.236;-73.040;2023-04-16T14:40:25;14.50;99.90
31527;DHT22;18136;42.236;-73.040;2023-04-16T14:42:52;14.50;99.90
31527;DHT22;18136;42.236;-73.040;2023-04-16T14:45:18;14.60;99.90
31527;DHT22;18136;42.236;-73.040;2023-04-16T14:47:44;14.60;99.90
31527;DHT22;18136;42.236;-73.040;2023-04-16T14:50:12;14.60;99.90
31527;DHT22;18136;42.236;-73.040;2023-04-16T14:52:40;14.60;99.90
31527;DHT22;18136;42.236;-73.040;2023-04-16T14:55:07;14.60;99.90
31527;DHT22;18136;42.236;-73.040;2023-04-16T14:57:33;14.60;99.90
31527;DHT22;18136;42.236;-73.040;2023-04-16T14:59:59;14.60;99.90
31527;DHT22;18136;42.236;-73.040;2023-04-16T15:02:25;14.60;99.90
31527;DHT22;18136;42.236;-73.040;2023-04-16T15:04:53;14.60;99.90
31527;DHT22;18136;42.236;-73.040;2023-04-16T15:07:19;14.60;99.90
31527;DHT22;18136;42.236;-73.040;2023-04-16T15:09:45;14.60;99.90
31527;DHT22;18136;42.236;-73.040;2023-04-16T15:12:11;14.60;99.90
31527;DHT22;18136;42.236;-73.040;2023-04-16T15:14:37;14.70;99.90
31527;DHT22;18136;42.236;-73.040;2023-04-16T15:17:03;14.70;99.90
31527;DHT22;18136;42.236;-73.040;2023-04-16T15:19:30;14.70;99.90
31527;DHT22;18136;42.236;-73.040;2023-04-16T15:21:56;14.70;99.90